Wittenoom, Western Australia

9:35 AM MST on March 03, 2015 (GMT -0700)
Springbank | Change Station
CLOSE
Current Station
Airport
Location: Calgary Springbank,
Elevation: 3937 ft
Nearby Weather Stations

Elev 3937 ft 51.10 °N, 114.37 °W | Updated 35 minutes ago

Clear
Clear
-4 °F
Feels Like -18 °F
N
7
Wind Variable Wind from NNW

Today
High -- | Low -- °F
--% Chance of Precip.
Yesterday
High -- | Low -- °F
Precip. -- in
7:18 AM 6:21 PM
Waxing Gibbous, 96% visible
Pressure 30.42 in
Visibility 9.0 miles
Clouds Clear
Windchill -18 °F
Dew Point -8 °F
Humidity 85%
Rainfall 0.00 in
Snow Depth Not available.
UV 1 out of 12
Pollen Not available.
Air Quality Not available.
Flu Activity Not available.
METAR CYBW 031600Z AUTO 33006KT 9SM CLR M20/M22 A3011 RMK SLP299

More Conditions Fewer Conditions

Pressure 30.42 in
Visibility 9.0 miles
Clouds Clear
Windchill -18 °F
Dew Point -8 °F
Humidity 85%
Rainfall 0.00 in
Snow Depth Not available.
UV 1 out of 12
Pollen Not available.
Air Quality Not available.
Flu Activity Not available.
METAR CYBW 031600Z AUTO 33006KT 9SM CLR M20/M22 A3011 RMK SLP299

More Conditions Fewer Conditions

10-Day Weather Forecast

Almanac

Astronomy

Mar. 03, 2015 Rise Set
Actual Time
Civil Twilight
Nautical Twilight
Astronomical Twilight
Moon
Length of Visible Light
Length of Day
Tomorrow will be .
, % of the Moon is Illuminated

Today's Extremes

Country Highs Country Lows

Community

WunderPhotos

Upload Photos

1,802,164 photos uploaded!

WunderBlogs® & News

Nearby

Air Quality

  Air Quality AQ Index Pollutant
Not available.

Snow Depth

Station Depth Elevation

Earthquake Activity

City Distance Mag. Time & Date
Minimum magnitude displayed is 2.5.

Coastal Water Temperatures

Place Temperature

Nearby Weather Stations